Time;durP1;ratioP1;P1;durP2;ratioP2;P2;SDS_P1;SDS_P2;PMS_P1;PMS_P2;Temp;Humidity;BMP_temperature;BMP_pressure;BME280_temperature;BME280_humidity;BME280_pressure;Samples;Min_cycle;Max_cycle;Signal;HPM_P1;HPM_P2
2022/07/31 00:01:40;;;;;;;5.10;4.60;;;;;;;21.30;74.16;95892.75;4920271;29;20213;-82
2022/07/31 00:04:07;;;;;;;7.75;5.13;;;;;;;21.30;73.07;95898.00;4921047;29;20238;-84
2022/07/31 00:06:33;;;;;;;6.28;5.70;;;;;;;21.18;73.88;95884.91;4921293;29;20210;-84
2022/07/31 00:09:00;;;;;;;6.60;6.00;;;;;;;20.96;74.52;95881.41;4921337;29;20233;-84
2022/07/31 00:11:26;;;;;;;5.53;5.13;;;;;;;20.91;75.00;95892.56;4920954;29;20206;-81
2022/07/31 00:13:54;;;;;;;5.05;4.65;;;;;;;20.90;74.49;95888.34;4920852;29;20245;-83
2022/07/31 00:16:20;;;;;;;4.95;4.50;;;;;;;20.89;75.31;95886.75;4920907;29;20256;-82
2022/07/31 00:18:46;;;;;;;5.00;4.60;;;;;;;20.82;76.04;95886.09;4921174;29;20226;-84
2022/07/31 00:21:13;;;;;;;5.07;4.72;;;;;;;20.80;76.13;95887.34;4920596;29;20198;-83
2022/07/31 00:23:40;;;;;;;4.75;4.35;;;;;;;20.80;76.49;95884.72;4919786;29;20241;-81
2022/07/31 00:26:07;;;;;;;4.80;4.50;;;;;;;20.82;75.71;95882.69;4920834;29;20234;-82
2022/07/31 00:28:33;;;;;;;4.85;4.45;;;;;;;20.84;75.60;95880.63;4920847;29;20258;-83
2022/07/31 00:31:01;;;;;;;5.20;4.68;;;;;;;20.81;75.23;95887.13;4919575;29;20214;-83
2022/07/31 00:33:27;;;;;;;5.03;4.53;;;;;;;20.80;75.72;95880.28;4920675;29;20238;-81
2022/07/31 00:35:54;;;;;;;4.68;4.28;;;;;;;20.83;75.00;95879.84;4920424;29;20202;-84
2022/07/31 00:38:20;;;;;;;4.38;4.07;;;;;;;20.82;74.64;95880.84;4920341;29;20229;-82
2022/07/31 00:40:47;;;;;;;5.63;4.28;;;;;;;20.87;73.88;95875.72;4919959;29;20202;-82
2022/07/31 00:43:14;;;;;;;4.28;3.90;;;;;;;20.83;74.34;95877.22;4920176;29;20619;-83
2022/07/31 00:45:41;;;;;;;4.20;3.80;;;;;;;20.73;75.49;95884.09;4920533;29;20226;-81
2022/07/31 00:48:08;;;;;;;5.05;4.60;;;;;;;20.63;75.71;95879.44;4920960;29;20229;-84
2022/07/31 00:50:36;;;;;;;5.25;4.30;;;;;;;20.59;75.82;95886.94;4919303;29;20642;-83
2022/07/31 00:53:03;;;;;;;4.50;3.97;;;;;;;20.57;75.97;95883.00;4920445;29;20241;-83
2022/07/31 00:55:30;;;;;;;4.45;4.15;;;;;;;20.46;76.51;95884.59;4919501;29;20250;-84
2022/07/31 00:57:57;;;;;;;4.30;4.00;;;;;;;20.32;76.73;95886.66;4919825;29;20210;-81
2022/07/31 01:00:23;;;;;;;4.55;4.22;;;;;;;20.32;76.75;95886.66;4919940;29;20670;-82
2022/07/31 01:02:50;;;;;;;4.53;4.13;;;;;;;20.32;76.79;95886.66;4920274;29;20230;-84
2022/07/31 01:05:18;;;;;;;4.22;3.92;;;;;;;20.42;75.93;95886.09;4920518;29;20209;-84
2022/07/31 01:07:45;;;;;;;4.50;4.10;;;;;;;20.41;76.38;95881.88;4920063;29;20229;-80
2022/07/31 01:10:16;;;;;;;4.50;4.07;;;;;;;20.38;76.23;95884.19;4919648;29;20320;-82
2022/07/31 01:12:51;;;;;;;4.40;4.10;;;;;;;20.39;76.13;95885.78;4919122;29;20241;-81
2022/07/31 01:15:19;;;;;;;4.78;4.18;;;;;;;20.42;76.00;95886.09;4919501;29;20206;-80
2022/07/31 01:17:47;;;;;;;4.70;4.15;;;;;;;20.46;75.67;95879.38;4918979;29;20202;-82
2022/07/31 01:20:14;;;;;;;4.63;4.32;;;;;;;20.57;75.30;95881.19;4919026;29;20226;-82
2022/07/31 01:23:02;;;;;;;4.53;4.18;;;;;;;20.56;74.66;95887.44;4918768;29;20237;-83
2022/07/31 01:25:38;;;;;;;4.13;3.83;;;;;;;20.51;75.09;95883.91;4919257;29;20257;-82
2022/07/31 01:28:18;;;;;;;3.90;3.60;;;;;;;20.57;74.97;95885.63;4904798;29;20253;-82
2022/07/31 01:30:51;;;;;;;4.18;3.78;;;;;;;20.54;74.25;95889.50;4918820;29;20216;-84
2022/07/31 01:33:21;;;;;;;8.68;3.83;;;;;;;20.57;74.29;95869.91;4919381;29;20256;-80
2022/07/31 01:35:51;;;;;;;4.10;3.75;;;;;;;20.64;73.93;95881.81;4918825;29;20687;-84
2022/07/31 01:38:23;;;;;;;3.63;3.40;;;;;;;20.66;73.73;95876.38;4919375;29;20237;-83
2022/07/31 01:40:56;;;;;;;3.83;3.53;;;;;;;20.67;73.59;95880.56;4918091;29;20224;-83
2022/07/31 01:43:25;;;;;;;3.78;3.47;;;;;;;20.64;73.89;95873.97;4919035;29;20238;-84
2022/07/31 01:45:57;;;;;;;4.30;3.90;;;;;;;20.62;73.54;95875.22;4918431;29;20198;-82
2022/07/31 01:48:25;;;;;;;4.00;3.70;;;;;;;20.62;73.72;95877.84;4918718;29;20222;-82
2022/07/31 01:50:54;;;;;;;5.75;3.67;;;;;;;20.61;74.25;95871.03;4917797;29;20210;-84
2022/07/31 01:53:22;;;;;;;3.95;3.55;;;;;;;20.62;74.07;95870.78;4918171;29;20244;-83
2022/07/31 01:55:52;;;;;;;3.75;3.45;;;;;;;20.64;74.16;95866.13;4917842;29;20287;-82
2022/07/31 01:58:21;;;;;;;4.43;4.00;;;;;;;20.63;74.20;95871.59;4918182;29;20690;-82
2022/07/31 02:00:49;;;;;;;4.18;3.83;;;;;;;20.61;74.52;95873.63;4917399;29;20281;-81
2022/07/31 02:03:17;;;;;;;3.75;3.50;;;;;;;20.61;74.53;95873.63;4917559;29;20314;-81
2022/07/31 02:05:44;;;;;;;3.83;3.45;;;;;;;20.58;74.00;95863.66;4917932;29;20292;-84
2022/07/31 02:08:14;;;;;;;3.70;3.40;;;;;;;20.59;73.83;95866.03;4918448;29;20290;-84
2022/07/31 02:10:44;;;;;;;4.05;3.75;;;;;;;20.67;73.24;95868.28;4917143;29;20585;-81
2022/07/31 02:13:11;;;;;;;3.28;3.05;;;;;;;20.75;73.13;95867.13;4918262;29;20305;-83
2022/07/31 02:15:38;;;;;;;3.70;3.40;;;;;;;20.80;73.02;95869.81;4918303;29;20210;-83
2022/07/31 02:18:06;;;;;;;3.58;3.28;;;;;;;20.85;72.03;95867.31;4919057;29;20202;-83
2022/07/31 02:20:34;;;;;;;3.42;3.22;;;;;;;20.90;71.06;95866.63;4918534;29;20209;-82
2022/07/31 02:23:01;;;;;;;3.20;2.85;;;;;;;20.87;70.84;95867.88;4917557;29;20736;-84
2022/07/31 02:25:29;;;;;;;3.50;3.20;;;;;;;20.90;70.50;95867.41;4918681;29;20240;-81
2022/07/31 02:27:58;;;;;;;3.40;3.10;;;;;;;20.91;70.58;95866.38;4918045;29;20202;-83
2022/07/31 02:30:26;;;;;;;3.30;3.10;;;;;;;20.92;70.52;95867.97;4917756;29;20233;-84
2022/07/31 02:32:53;;;;;;;2.97;2.78;;;;;;;20.92;70.38;95867.19;4917468;29;20233;-84
2022/07/31 02:35:21;;;;;;;3.25;3.00;;;;;;;20.91;70.44;95863.75;4917676;29;20206;-82
2022/07/31 02:37:50;;;;;;;6.07;3.15;;;;;;;20.93;70.54;95866.94;4917613;29;20719;-84
2022/07/31 02:40:18;;;;;;;3.33;3.10;;;;;;;20.95;70.42;95864.09;4917222;29;20229;-83
2022/07/31 02:42:46;;;;;;;3.10;2.90;;;;;;;20.92;70.25;95859.31;4917637;29;20240;-82
2022/07/31 02:45:14;;;;;;;3.15;2.85;;;;;;;20.91;70.20;95862.97;4917234;29;20207;-81
2022/07/31 02:47:42;;;;;;;4.07;2.67;;;;;;;20.89;70.25;95857.16;4917423;29;20491;-83
2022/07/31 02:50:08;;;;;;;3.38;3.08;;;;;;;20.83;70.63;95864.13;4916552;29;20500;-82
2022/07/31 02:52:35;;;;;;;3.30;3.00;;;;;;;20.78;70.84;95869.28;4916780;29;20202;-83
2022/07/31 02:55:03;;;;;;;3.58;3.00;;;;;;;20.82;70.56;95869.59;4917910;29;20213;-83
2022/07/31 02:57:30;;;;;;;3.10;2.90;;;;;;;20.82;70.55;95870.38;4916608;29;20210;-83
2022/07/31 02:59:56;;;;;;;3.00;2.80;;;;;;;20.75;70.86;95867.13;4916874;29;20230;-82
2022/07/31 03:02:23;;;;;;;4.70;2.90;;;;;;;20.69;71.74;95863.63;4916734;29;20206;-84
2022/07/31 03:04:49;;;;;;;2.97;2.78;;;;;;;20.73;71.63;95860.53;4917155;29;20206;-82
2022/07/31 03:07:16;;;;;;;3.35;2.92;;;;;;;20.74;71.30;95862.94;4916928;29;20210;-84
2022/07/31 03:09:42;;;;;;;5.25;3.55;;;;;;;20.78;70.75;95861.44;4917990;29;20320;-82
2022/07/31 03:12:10;;;;;;;3.08;2.88;;;;;;;20.80;70.51;95858.56;4916442;29;20198;-82
2022/07/31 03:14:37;;;;;;;3.28;2.95;;;;;;;20.83;69.64;95866.75;4916351;29;20247;-82
2022/07/31 03:17:05;;;;;;;2.80;2.60;;;;;;;20.82;68.93;95857.31;4916813;29;20201;-81
2022/07/31 03:19:32;;;;;;;4.20;2.95;;;;;;;20.80;69.21;95856.75;4916987;29;20249;-83
2022/07/31 03:21:59;;;;;;;3.60;2.70;;;;;;;20.83;68.85;95864.13;4916658;29;20209;-83
2022/07/31 03:24:26;;;;;;;3.53;2.63;;;;;;;20.87;68.58;95861.84;4916801;29;20237;-84
2022/07/31 03:26:53;;;;;;;3.65;2.67;;;;;;;20.86;68.44;95862.88;4917227;29;20209;-82
2022/07/31 03:29:21;;;;;;;2.85;2.60;;;;;;;20.89;68.60;95871.06;4916641;29;20222;-83
2022/07/31 03:31:47;;;;;;;2.70;2.50;;;;;;;20.83;68.30;95865.94;4916937;29;20206;-84
2022/07/31 03:34:13;;;;;;;2.97;2.78;;;;;;;20.79;67.96;95868.22;4916842;29;20237;-81
2022/07/31 03:36:40;;;;;;;3.47;2.83;;;;;;;20.82;67.77;95870.38;4917309;29;20210;-84
2022/07/31 03:39:06;;;;;;;3.13;2.58;;;;;;;20.86;67.39;95876.75;4916882;29;20222;-83
2022/07/31 03:41:33;;;;;;;2.53;2.33;;;;;;;20.90;67.30;95866.63;4916412;29;20578;-83
2022/07/31 03:44:00;;;;;;;2.90;2.70;;;;;;;20.88;67.25;95861.63;4915812;29;20273;-83
2022/07/31 03:46:29;;;;;;;2.78;2.58;;;;;;;20.85;67.73;95864.69;4917202;29;20210;-84
2022/07/31 03:48:55;;;;;;;2.85;2.65;;;;;;;20.84;67.67;95857.88;4917098;29;20237;-83
2022/07/31 03:51:22;;;;;;;2.80;2.60;;;;;;;20.84;67.88;95863.09;4916302;29;20202;-82
2022/07/31 03:53:50;;;;;;;2.88;2.67;;;;;;;20.84;68.01;95864.91;4916691;29;20230;-81
2022/07/31 03:56:18;;;;;;;2.83;2.63;;;;;;;20.83;67.50;95863.34;4916818;29;20195;-81
2022/07/31 03:58:45;;;;;;;2.97;2.42;;;;;;;20.79;67.89;95868.22;4919927;29;20246;-83
2022/07/31 04:01:11;;;;;;;2.70;2.50;;;;;;;20.79;67.86;95867.44;4919139;29;20202;-84
2022/07/31 04:03:39;;;;;;;4.43;2.67;;;;;;;20.80;67.78;95869.03;4919412;29;20310;-81
2022/07/31 04:06:06;;;;;;;2.40;2.30;;;;;;;20.74;68.10;95865.53;4919673;29;20209;-84
2022/07/31 04:08:33;;;;;;;4.53;2.45;;;;;;;20.73;67.76;95857.91;4919499;29;20230;-84
2022/07/31 04:10:59;;;;;;;3.30;2.65;;;;;;;20.66;68.42;95869.31;4918780;29;20226;-82
2022/07/31 04:13:26;;;;;;;3.22;2.78;;;;;;;20.60;69.13;95861.59;4919219;29;20234;-83
2022/07/31 04:15:52;;;;;;;2.88;2.55;;;;;;;20.65;68.64;95865.09;4919627;29;20759;-84
2022/07/31 04:18:18;;;;;;;3.83;2.80;;;;;;;20.66;68.49;95864.06;4918396;29;20221;-82
2022/07/31 04:20:46;;;;;;;2.90;2.70;;;;;;;20.66;68.32;95865.91;4919313;29;20562;-83
2022/07/31 04:23:12;;;;;;;3.10;2.80;;;;;;;20.58;68.93;95867.06;4918458;29;20244;-83
2022/07/31 04:25:39;;;;;;;3.03;2.80;;;;;;;20.64;68.31;95870.56;4919561;29;20213;-82
2022/07/31 04:28:05;;;;;;;2.72;2.53;;;;;;;20.66;68.61;95865.91;4919280;29;20205;-83
2022/07/31 04:30:32;;;;;;;2.80;2.60;;;;;;;20.69;68.97;95868.84;4918659;29;20230;-82
2022/07/31 04:32:58;;;;;;;4.07;2.80;;;;;;;20.74;68.71;95870.78;4917808;29;20734;-82
2022/07/31 04:35:25;;;;;;;4.40;2.67;;;;;;;20.80;68.63;95882.13;4919034;29;20249;-83
2022/07/31 04:37:52;;;;;;;3.78;2.80;;;;;;;20.82;68.43;95886.09;4918425;29;20206;-84
2022/07/31 04:40:19;;;;;;;3.22;2.90;;;;;;;20.81;69.05;95881.09;4918014;29;20210;-84
2022/07/31 04:42:45;;;;;;;3.13;2.70;;;;;;;20.80;68.74;95879.50;4918053;29;20581;-83
2022/07/31 04:45:12;;;;;;;2.92;2.60;;;;;;;20.84;68.50;95883.25;4918830;29;20209;-84
2022/07/31 04:47:38;;;;;;;4.07;2.70;;;;;;;20.86;68.40;95887.22;4918496;29;20210;-81
2022/07/31 04:50:06;;;;;;;2.97;2.78;;;;;;;20.90;68.35;95882.31;4917663;29;20282;-82
2022/07/31 04:52:33;;;;;;;3.08;2.88;;;;;;;20.92;68.50;95882.88;4916954;29;20233;-84
2022/07/31 04:55:01;;;;;;;2.80;2.60;;;;;;;20.93;68.05;95884.47;4917813;29;20206;-83
2022/07/31 04:57:27;;;;;;;3.17;2.65;;;;;;;20.94;67.68;95881.63;4917406;29;20207;-82
2022/07/31 04:59:54;;;;;;;3.60;2.67;;;;;;;20.98;67.38;95887.97;4917119;29;20601;-84
2022/07/31 05:02:20;;;;;;;3.85;2.92;;;;;;;21.04;67.53;95887.03;4916342;29;20202;-84
2022/07/31 05:04:47;;;;;;;3.58;2.60;;;;;;;21.06;67.01;95881.56;4917399;29;20206;-83
2022/07/31 05:07:13;;;;;;;3.00;2.80;;;;;;;21.09;66.57;95881.09;4917656;29;20199;-82
2022/07/31 05:09:39;;;;;;;3.30;2.42;;;;;;;21.13;66.56;95887.47;4916940;29;20230;-82
2022/07/31 05:12:07;;;;;;;2.88;2.67;;;;;;;21.15;66.46;95876.75;4917408;29;20198;-82
2022/07/31 05:14:34;;;;;;;3.00;2.80;;;;;;;21.12;66.85;95879.84;4938268;23;20257;-85
2022/07/31 05:17:00;;;;;;;2.85;2.50;;;;;;;21.22;66.74;95877.41;4916785;29;20208;-85
2022/07/31 05:19:28;;;;;;;2.97;2.60;;;;;;;21.30;66.35;95874.44;4916992;29;20210;-86
2022/07/31 05:21:58;;;;;;;2.85;2.65;;;;;;;21.37;66.10;95875.84;4916446;29;20209;-87
2022/07/31 05:24:24;;;;;;;3.22;2.50;;;;;;;21.46;65.63;95878.09;4916864;29;20233;-87
2022/07/31 05:26:51;;;;;;;3.35;2.63;;;;;;;21.51;65.13;95881.59;4917120;29;20586;-85
2022/07/31 05:29:18;;;;;;;2.97;2.67;;;;;;;21.58;64.74;95869.13;4911674;29;20198;-85
2022/07/31 05:31:45;;;;;;;3.00;2.42;;;;;;;21.61;64.99;95865.22;4915686;29;20729;-85
2022/07/31 05:34:11;;;;;;;3.88;3.05;;;;;;;21.70;64.85;95869.84;4916024;29;20249;-85
2022/07/31 05:36:37;;;;;;;3.03;2.72;;;;;;;21.78;64.96;95876.50;4878755;29;20199;-85
2022/07/31 05:39:04;;;;;;;2.78;2.53;;;;;;;21.88;64.35;95879.28;4878976;29;20810;-84
2022/07/31 05:41:32;;;;;;;3.45;2.60;;;;;;;21.96;64.05;95878.84;4896679;29;20202;-85
2022/07/31 05:43:59;;;;;;;3.00;2.70;;;;;;;;;;4915801;29;20233;-87
2022/07/31 05:46:27;;;;;;;3.15;2.67;;;;;;;21.95;63.87;95889.59;4900021;29;20214;-87
2022/07/31 05:48:54;;;;;;;2.50;2.35;;;;;;;21.93;63.74;95891.69;4897325;29;20301;-85
2022/07/31 05:51:21;;;;;;;5.70;2.47;;;;;;;21.97;63.84;95892.75;4899553;29;20222;-85
2022/07/31 05:53:47;;;;;;;2.83;2.63;;;;;;;22.02;63.86;95882.38;4908257;29;20738;-85
2022/07/31 05:56:14;;;;;;;2.70;2.50;;;;;;;21.96;63.37;95893.78;4897022;29;20227;-85
2022/07/31 05:58:40;;;;;;;4.15;2.60;;;;;;;21.99;63.39;95895.94;4895765;29;20215;-85
2022/07/31 06:01:07;;;;;;;2.90;2.47;;;;;;;22.10;63.54;95895.09;4895928;29;20254;-84
2022/07/31 06:03:35;;;;;;;3.67;2.58;;;;;;;22.18;63.14;95899.91;4883127;29;20679;-87
2022/07/31 06:06:03;;;;;;;3.10;2.70;;;;;;;22.23;63.26;95889.50;4882623;29;20275;-87
2022/07/31 06:08:31;;;;;;;2.53;2.33;;;;;;;22.28;62.93;95891.41;4878833;29;20219;-85
2022/07/31 06:10:58;;;;;;;3.17;2.40;;;;;;;22.35;62.82;95892.00;4889950;29;20222;-88
2022/07/31 06:13:26;;;;;;;2.38;2.25;;;;;;;22.37;62.63;95895.19;4894366;29;20265;-86
2022/07/31 06:15:53;;;;;;;2.97;2.67;;;;;;;22.38;62.50;95894.94;4878317;29;20235;-85
2022/07/31 06:18:19;;;;;;;3.28;2.50;;;;;;;22.33;62.17;95900.13;4895338;29;20210;-84
2022/07/31 06:20:47;;;;;;;2.78;2.28;;;;;;;22.38;61.73;95900.19;4894896;29;20611;-85
2022/07/31 06:23:14;;;;;;;2.35;2.20;;;;;;;22.43;61.99;95901.31;4877916;29;20242;-85
2022/07/31 06:25:40;;;;;;;4.95;2.55;;;;;;;22.50;61.95;95899.31;4888717;29;20246;-85
2022/07/31 06:28:07;;;;;;;3.92;2.67;;;;;;;22.52;62.11;95897.19;4878461;29;20207;-87
2022/07/31 06:30:33;;;;;;;2.70;2.35;;;;;;;22.58;61.58;95898.88;4895502;29;20642;-83
2022/07/31 06:33:09;;;;;;;2.83;2.63;;;;;;;22.53;61.47;95896.97;4878176;29;20584;-85
2022/07/31 06:35:35;;;;;;;3.38;2.40;;;;;;;22.55;61.87;95900.16;4883013;29;20226;-87
2022/07/31 06:38:03;;;;;;;2.92;2.38;;;;;;;22.64;61.73;95895.28;4895628;29;20214;-87
2022/07/31 06:40:30;;;;;;;2.90;2.60;;;;;;;22.73;61.63;95888.53;4901238;29;20196;-85
2022/07/31 06:42:56;;;;;;;4.35;3.05;;;;;;;22.85;61.51;95896.34;4883052;29;20241;-85
2022/07/31 06:45:23;;;;;;;4.50;2.28;;;;;;;22.94;61.52;95894.84;4878730;29;20227;-86
2022/07/31 06:47:49;;;;;;;3.17;2.88;;;;;;;22.98;60.89;95896.75;4904579;29;20202;-88
2022/07/31 06:50:17;;;;;;;3.03;2.53;;;;;;;23.04;60.99;95901.03;4914093;29;20237;-87
2022/07/31 06:52:44;;;;;;;2.42;2.22;;;;;;;23.03;60.56;95902.06;4911516;29;20233;-87
2022/07/31 06:55:12;;;;;;;5.65;2.50;;;;;;;23.07;60.38;95899.72;4895084;29;20628;-89
2022/07/31 06:57:41;;;;;;;2.20;2.10;;;;;;;23.07;60.75;95899.72;4894768;29;20214;-85
2022/07/31 07:00:08;;;;;;;2.95;2.50;;;;;;;23.13;60.40;95903.19;4880595;29;20204;-86
2022/07/31 07:02:36;;;;;;;3.05;2.63;;;;;;;23.09;59.86;95903.69;4904620;29;20233;-88
2022/07/31 07:05:04;;;;;;;2.22;2.03;;;;;;;23.10;60.23;95901.84;4896567;29;20778;-88
2022/07/31 07:07:30;;;;;;;2.88;2.58;;;;;;;22.93;59.68;95906.38;4912178;29;20233;-87
2022/07/31 07:09:57;;;;;;;7.00;6.40;;;;;;;22.90;59.11;95912.16;4890717;29;20580;-88
2022/07/31 07:12:24;;;;;;;3.58;3.20;;;;;;;22.86;58.65;95913.69;4878749;29;20203;-88
2022/07/31 07:14:51;;;;;;;4.25;3.85;;;;;;;22.83;59.16;95917.59;4877990;29;20763;-88
2022/07/31 07:17:17;;;;;;;2.85;2.60;;;;;;;22.82;59.52;95918.63;4885552;29;20210;-88
2022/07/31 07:19:44;;;;;;;3.83;2.40;;;;;;;22.90;59.85;95918.16;4895171;29;20692;-89
2022/07/31 07:22:10;;;;;;;3.50;2.28;;;;;;;22.93;59.29;95912.44;4881764;29;20211;-87
2022/07/31 07:24:37;;;;;;;2.45;2.25;;;;;;;22.86;59.25;95914.47;4890916;29;20231;-87
2022/07/31 07:27:03;;;;;;;3.10;2.20;;;;;;;22.86;59.31;95901.34;4884385;29;20206;-87
2022/07/31 07:29:31;;;;;;;2.33;2.15;;;;;;;22.91;59.35;95903.22;4892463;29;20202;-87
2022/07/31 07:31:59;;;;;;;2.25;2.15;;;;;;;22.95;58.91;95905.09;4895493;29;20230;-85
2022/07/31 07:34:27;;;;;;;3.22;2.00;;;;;;;22.92;57.45;95902.16;4891682;29;20290;-85
2022/07/31 07:36:54;;;;;;;2.53;2.15;;;;;;;22.85;57.68;95902.38;4881790;29;20600;-85
2022/07/31 07:39:23;;;;;;;2.50;2.30;;;;;;;22.78;57.41;95906.22;4884595;29;20797;-89
2022/07/31 07:41:50;;;;;;;3.45;2.17;;;;;;;22.79;57.49;95897.31;4892110;29;20899;-86
2022/07/31 07:44:19;;;;;;;2.42;2.28;;;;;;;22.82;57.39;95900.25;4887974;29;20228;-85
2022/07/31 07:46:48;;;;;;;4.45;2.25;;;;;;;22.85;57.83;95902.38;4880120;29;20279;-85
2022/07/31 07:49:14;;;;;;;2.30;2.20;;;;;;;22.89;57.83;95902.69;4882193;29;20700;-85
2022/07/31 07:51:43;;;;;;;3.30;2.42;;;;;;;23.02;58.14;95891.78;4896926;29;20218;-85
2022/07/31 07:54:09;;;;;;;4.30;2.72;;;;;;;23.12;58.14;95891.88;4896713;29;20241;-87
2022/07/31 07:56:36;;;;;;;4.30;2.40;;;;;;;23.22;59.11;95893.84;4893253;29;20582;-87
2022/07/31 07:59:02;;;;;;;6.65;6.00;;;;;;;23.35;57.80;95888.16;4884129;29;20206;-85
2022/07/31 08:01:29;;;;;;;6.93;6.13;;;;;;;23.37;57.50;95883.47;4891594;29;20205;-89
2022/07/31 08:03:57;;;;;;;7.68;5.78;;;;;;;23.47;57.20;95895.91;4897089;29;20317;-85
2022/07/31 08:06:23;;;;;;;7.20;5.07;;;;;;;23.55;56.53;95896.25;4898583;29;20226;-85
2022/07/31 08:08:50;;;;;;;9.68;5.40;;;;;;;23.67;56.01;95894.25;4884769;29;20203;-85
2022/07/31 08:11:16;;;;;;;3.33;3.03;;;;;;;23.73;55.91;95890.63;4884675;29;20227;-88
2022/07/31 08:13:43;;;;;;;5.03;3.55;;;;;;;23.80;55.59;95890.41;4885522;29;20236;-85
2022/07/31 08:16:09;;;;;;;3.25;2.95;;;;;;;23.84;55.34;95883.63;4879368;29;20303;-85
2022/07/31 08:18:36;;;;;;;6.43;2.50;;;;;;;23.94;55.26;95891.56;4889508;29;20207;-88
2022/07/31 08:21:08;;;;;;;2.70;2.30;;;;;;;24.06;54.97;95886.09;4881581;29;20203;-89
2022/07/31 08:23:35;;;;;;;2.67;2.42;;;;;;;23.99;52.85;95896.88;4880427;29;20238;-89
2022/07/31 08:26:03;;;;;;;3.45;2.90;;;;;;;24.22;53.38;95879.91;4895264;29;20711;-85
2022/07/31 08:28:30;;;;;;;2.97;2.70;;;;;;;24.28;53.54;95886.00;4887423;29;20200;-87
2022/07/31 08:30:57;;;;;;;3.55;2.63;;;;;;;24.51;52.96;95885.59;4895595;29;20219;-86
2022/07/31 08:33:25;;;;;;;3.63;2.63;;;;;;;24.76;51.19;95885.72;4890964;29;20231;-85
2022/07/31 08:35:52;;;;;;;2.67;2.42;;;;;;;25.02;52.70;95893.69;4882157;29;20219;-85
2022/07/31 08:38:20;;;;;;;5.50;2.67;;;;;;;25.30;52.02;95880.06;4884806;29;20199;-84
2022/07/31 08:40:48;;;;;;;3.30;2.60;;;;;;;25.50;49.83;95879.28;4883739;29;20825;-85
2022/07/31 08:43:15;;;;;;;2.60;2.35;;;;;;;25.75;49.23;95881.97;4894973;29;20234;-85
2022/07/31 08:45:45;;;;;;;2.97;2.30;;;;;;;25.89;48.42;95882.22;4899505;29;20238;-85
2022/07/31 08:48:12;;;;;;;3.42;2.58;;;;;;;25.88;47.93;95877.19;4883951;29;20691;-84
2022/07/31 08:50:40;;;;;;;2.70;2.50;;;;;;;25.90;48.13;95875.09;4879339;29;20212;-85
2022/07/31 08:53:07;;;;;;;3.30;2.30;;;;;;;25.95;48.16;95875.09;4892471;29;20258;-85
2022/07/31 08:55:36;;;;;;;2.70;2.50;;;;;;;25.96;47.98;95872.19;4898604;29;20239;-87
2022/07/31 08:58:03;;;;;;;2.85;2.40;;;;;;;26.19;48.05;95872.66;4884320;29;20688;-87
2022/07/31 09:00:32;;;;;;;23.55;4.35;;;;;;;26.02;47.63;95876.38;4878181;29;20600;-87
2022/07/31 09:03:34;;;;;;;;;;;;;;;;;;;;;
2022/07/31 09:06:19;;;;;;;8.27;2.92;;;;;;;25.68;47.88;95876.16;4896701;29;20226;-87
2022/07/31 09:12:10;;;;;;;3.20;2.53;;;;;;;25.74;48.29;95867.19;4876105;29;20240;-88
2022/07/31 09:15:27;;;;;;;;;;;;;;;;;;;;;
2022/07/31 09:18:31;;;;;;;4.55;2.47;;;;;;;26.00;46.12;95865.28;4882743;29;20592;-87
2022/07/31 09:21:25;;;;;;;2.60;2.40;;;;;;;25.94;44.74;95863.75;4836520;29;20777;-88
2022/07/31 09:24:01;;;;;;;2.70;2.40;;;;;;;26.14;46.08;95857.63;4833603;29;20236;-86
2022/07/31 09:26:33;;;;;;;4.03;2.65;;;;;;;26.21;44.44;95857.34;4896056;29;20226;-85
2022/07/31 09:29:07;;;;;;;3.42;2.25;;;;;;;26.17;41.87;95851.78;4879963;29;20238;-86
2022/07/31 09:31:34;;;;;;;2.22;2.10;;;;;;;26.37;44.00;95851.75;4894481;29;20286;-85
2022/07/31 09:34:03;;;;;;;2.50;2.20;;;;;;;26.54;43.17;95858.59;4899103;29;20614;-86
2022/07/31 09:36:30;;;;;;;2.85;2.20;;;;;;;26.70;42.71;95849.53;4880248;29;20278;-84
2022/07/31 09:38:58;;;;;;;2.92;2.63;;;;;;;26.73;41.25;95849.00;4898802;29;20643;-85
2022/07/31 09:41:24;;;;;;;4.03;2.80;;;;;;;26.91;42.42;95850.22;4881790;29;20211;-85
2022/07/31 09:43:54;;;;;;;2.45;2.17;;;;;;;26.96;40.38;95850.19;4880458;29;20286;-85
2022/07/31 09:46:22;;;;;;;2.90;2.20;;;;;;;27.03;41.07;95856.00;4893967;29;20708;-86
2022/07/31 09:48:51;;;;;;;4.22;2.25;;;;;;;27.09;39.70;95853.06;4898121;29;20326;-85
2022/07/31 09:51:17;;;;;;;3.92;2.40;;;;;;;27.03;38.83;95848.84;4883862;29;20719;-84
2022/07/31 09:53:45;;;;;;;4.65;1.88;;;;;;;27.17;37.04;95841.09;4901016;29;20245;-84
2022/07/31 09:56:14;;;;;;;3.95;2.00;;;;;;;27.39;38.55;95853.88;4893113;29;20254;-84
2022/07/31 09:58:42;;;;;;;2.53;1.90;;;;;;;27.50;36.59;95847.47;4883106;29;20353;-84
2022/07/31 10:01:10;;;;;;;1.98;1.77;;;;;;;27.61;35.40;95842.91;4898370;29;20199;-84
2022/07/31 10:03:40;;;;;;;1.85;1.75;;;;;;;27.71;36.21;95848.13;4899608;29;20223;-84
2022/07/31 10:06:11;;;;;;;4.00;2.85;;;;;;;27.79;34.92;95844.84;4895822;29;20231;-84
2022/07/31 10:08:38;;;;;;;3.20;2.17;;;;;;;27.70;33.66;95841.25;4886312;29;20204;-84
2022/07/31 10:11:06;;;;;;;2.60;2.03;;;;;;;27.72;34.55;95845.16;4902480;29;20361;-84
2022/07/31 10:13:36;;;;;;;2.38;2.13;;;;;;;27.77;34.46;95831.13;4900390;29;20258;-84
2022/07/31 10:16:03;;;;;;;2.42;1.85;;;;;;;27.91;35.88;95834.66;4894990;29;20237;-84
2022/07/31 10:18:31;;;;;;;2.15;1.90;;;;;;;27.82;34.26;95829.22;4882254;29;20700;-84
2022/07/31 10:21:02;;;;;;;1.70;1.60;;;;;;;27.95;34.69;95830.41;4902184;29;20261;-84
2022/07/31 10:23:29;;;;;;;2.60;1.98;;;;;;;27.89;33.92;95833.41;4904452;29;20238;-84
2022/07/31 10:25:57;;;;;;;2.20;2.00;;;;;;;27.94;34.95;95839.41;4889285;29;20634;-84
2022/07/31 10:28:24;;;;;;;1.90;1.80;;;;;;;28.03;35.21;95831.66;4897217;29;20785;-84
2022/07/31 10:30:51;;;;;;;1.90;1.80;;;;;;;27.90;34.66;95834.97;4901375;29;20263;-84
2022/07/31 10:33:20;;;;;;;3.60;2.10;;;;;;;27.89;35.87;95834.19;4903970;29;20231;-84
2022/07/31 10:35:57;;;;;;;4.88;2.10;;;;;;;28.04;35.66;95830.59;4903318;29;20282;-84
2022/07/31 10:38:30;;;;;;;3.97;1.80;;;;;;;28.31;36.28;95825.53;4902726;29;20365;-83
2022/07/31 10:41:02;;;;;;;1.77;1.60;;;;;;;28.43;34.78;95831.25;4902562;29;20230;-84
2022/07/31 10:43:36;;;;;;;3.75;1.90;;;;;;;28.31;34.18;95822.09;4903506;29;20235;-84
2022/07/31 10:46:02;;;;;;;2.30;2.10;;;;;;;28.33;35.65;95819.97;4884369;29;20275;-84
2022/07/31 10:48:29;;;;;;;2.63;2.00;;;;;;;28.38;35.21;95817.25;4889668;29;20206;-84
2022/07/31 10:51:03;;;;;;;2.53;1.90;;;;;;;28.46;34.96;95825.38;4904077;29;20203;-84
2022/07/31 10:53:31;;;;;;;2.60;2.10;;;;;;;28.76;35.89;95821.53;4896669;29;20231;-84
2022/07/31 10:56:02;;;;;;;2.00;1.80;;;;;;;28.81;33.86;95820.72;4905116;29;20278;-84
2022/07/31 10:58:29;;;;;;;3.47;1.85;;;;;;;28.88;33.83;95818.47;4899574;29;20291;-84
2022/07/31 11:01:05;;;;;;;2.03;1.45;;;;;;;29.10;33.60;95815.25;4887044;29;20233;-84
2022/07/31 11:03:38;;;;;;;1.90;1.80;;;;;;;29.29;34.31;95813.38;4899513;29;20261;-84
2022/07/31 11:06:05;;;;;;;4.85;1.95;;;;;;;29.24;33.67;95810.81;4904378;29;20230;-83
2022/07/31 11:08:42;;;;;;;2.40;2.17;;;;;;;28.97;34.43;95797.44;4907013;29;20207;-83
2022/07/31 11:11:09;;;;;;;3.08;1.80;;;;;;;28.32;34.61;95794.53;4910104;29;20594;-82
2022/07/31 11:13:46;;;;;;;2.10;1.75;;;;;;;28.01;34.50;95794.09;4894976;29;20231;-81
2022/07/31 11:16:12;;;;;;;2.17;1.98;;;;;;;27.91;35.13;95802.91;4893698;29;20253;-82
2022/07/31 11:18:39;;;;;;;2.03;1.88;;;;;;;27.85;35.67;95799.56;4907505;29;20206;-82
2022/07/31 11:21:07;;;;;;;2.10;1.90;;;;;;;27.81;36.80;95805.69;4908659;29;20222;-83
2022/07/31 11:23:35;;;;;;;2.65;2.00;;;;;;;27.74;36.05;95798.06;4908597;29;20293;-82
2022/07/31 11:26:05;;;;;;;2.75;1.80;;;;;;;27.91;37.30;95799.47;4909418;29;20222;-83
2022/07/31 11:28:32;;;;;;;2.15;1.70;;;;;;;28.14;36.88;95798.69;4894477;29;20207;-83
2022/07/31 11:31:00;;;;;;;1.83;1.70;;;;;;;28.27;37.33;95792.78;4911263;29;20206;-82
2022/07/31 11:33:35;;;;;;;2.08;1.92;;;;;;;28.38;35.57;95801.38;4906260;29;20703;-83
2022/07/31 11:36:07;;;;;;;1.92;1.80;;;;;;;28.75;35.80;95804.06;4907801;29;20353;-82
2022/07/31 11:38:34;;;;;;;2.08;1.80;;;;;;;28.87;34.59;95793.03;4903499;29;20536;-83
2022/07/31 11:41:00;;;;;;;4.95;2.22;;;;;;;28.79;35.81;95793.69;4898561;29;20213;-84
2022/07/31 11:43:29;;;;;;;3.72;2.08;;;;;;;28.75;36.00;95796.09;4878902;29;20287;-85
2022/07/31 11:45:56;;;;;;;2.33;1.83;;;;;;;29.04;35.01;95801.31;4878300;29;20318;-86